Time,TemperatureF,DewpointF,PressureIn,WindDirection,WindDirectionDegrees,WindSpeedMPH,WindSpeedGustMPH,Humidity,HourlyPrecipIn,Conditions,Clouds,dailyrainin,SoftwareType,DateUTC
2013-05-14 00:01:00,48.7,39.7,30.13,SE,146,3.0,4.0,71,0.00,,,0.00,Wunderground v.1.15,2013-05-14 04:01:00,
2013-05-14 00:02:00,48.8,40.2,30.13,SSE,152,3.0,4.0,72,0.00,,,0.00,Wunderground v.1.15,2013-05-14 04:02:00,
2013-05-14 00:03:00,48.8,40.2,30.13,SSE,152,3.0,4.0,72,0.00,,,0.00,Wunderground v.1.15,2013-05-14 04:03:00,
2013-05-14 00:05:00,48.8,40.5,30.13,SSE,148,4.0,4.0,73,0.00,,,0.00,Wunderground v.1.15,2013-05-14 04:05:00,
2013-05-14 00:07:00,48.6,40.3,30.13,SSE,148,4.0,4.0,73,0.00,,,0.00,Wunderground v.1.15,2013-05-14 04:07:00,
2013-05-14 00:12:00,48.6,41.0,30.12,SSE,148,4.0,4.0,75,0.00,,,0.00,Wunderground v.1.15,2013-05-14 04:12:00,
2013-05-14 00:18:00,48.5,41.3,30.12,SSE,147,4.0,4.0,76,0.00,,,0.00,Wunderground v.1.15,2013-05-14 04:18:00,
2013-05-14 00:24:00,48.3,41.1,30.12,SE,142,4.0,4.0,76,0.00,,,0.00,Wunderground v.1.15,2013-05-14 04:24:00,
2013-05-14 00:30:00,48.4,41.5,30.11,SSE,152,4.0,4.0,77,0.00,,,0.00,Wunderground v.1.15,2013-05-14 04:30:00,
2013-05-14 00:36:00,48.7,40.8,30.11,SSE,150,3.0,4.0,74,0.00,,,0.00,Wunderground v.1.15,2013-05-14 04:36:00,
2013-05-14 00:42:00,49.6,40.2,30.13,SSE,162,3.0,3.0,70,0.00,,,0.00,Wunderground v.1.15,2013-05-14 04:42:00,
2013-05-14 00:48:00,50.4,40.2,30.13,SSE,160,2.0,3.0,68,0.00,,,0.00,Wunderground v.1.15,2013-05-14 04:48:00,
2013-05-14 00:53:00,50.6,40.0,30.13,SSE,160,2.0,2.0,67,0.00,,,0.00,Wunderground v.1.15,2013-05-14 04:53:00,
2013-05-14 00:58:00,50.9,40.3,30.13,SSE,160,1.0,2.0,67,0.00,,,0.00,Wunderground v.1.15,2013-05-14 04:58:00,
2013-05-14 01:04:00,51.4,38.8,30.13,SSE,168,1.0,4.0,62,0.00,,,0.00,Wunderground v.1.15,2013-05-14 05:04:00,
2013-05-14 01:10:00,52.4,39.3,30.13,SSE,159,3.0,4.0,61,0.00,,,0.00,Wunderground v.1.15,2013-05-14 05:10:00,
2013-05-14 01:16:00,52.6,40.8,30.12,SSE,158,3.0,4.0,64,0.00,,,0.00,Wunderground v.1.15,2013-05-14 05:16:00,
2013-05-14 01:21:00,52.3,39.7,30.12,SSE,164,3.0,5.0,62,0.00,,,0.00,Wunderground v.1.15,2013-05-14 05:21:00,
2013-05-14 01:27:00,52.6,39.9,30.12,SE,145,3.0,5.0,62,0.00,,,0.00,Wunderground v.1.15,2013-05-14 05:27:00,
2013-05-14 01:33:00,52.1,41.1,30.12,SE,145,3.0,3.0,66,0.00,,,0.00,Wunderground v.1.15,2013-05-14 05:33:00,
2013-05-14 01:39:00,50.5,41.4,30.12,SE,145,3.0,4.0,71,0.00,,,0.00,Wunderground v.1.15,2013-05-14 05:39:00,
2013-05-14 01:45:00,49.9,40.9,30.12,SE,145,3.0,3.0,71,0.00,,,0.00,Wunderground v.1.15,2013-05-14 05:45:00,
2013-05-14 01:51:00,49.6,40.2,30.12,SSE,152,2.0,2.0,70,0.00,,,0.00,Wunderground v.1.15,2013-05-14 05:51:00,
2013-05-14 01:57:00,50.0,39.5,30.12,SSE,152,2.0,3.0,67,0.00,,,0.00,Wunderground v.1.15,2013-05-14 05:57:00,
2013-05-14 02:02:00,50.8,39.1,30.12,SSE,152,2.0,4.0,64,0.00,,,0.00,Wunderground v.1.15,2013-05-14 06:02:00,
2013-05-14 02:08:00,50.9,39.1,30.11,SE,141,3.0,4.0,64,0.00,,,0.00,Wunderground v.1.15,2013-05-14 06:08:00,
2013-05-14 02:14:00,50.3,39.4,30.11,SE,141,3.0,3.0,66,0.00,,,0.00,Wunderground v.1.15,2013-05-14 06:14:00,
2013-05-14 02:20:00,49.0,40.0,30.11,SE,141,2.0,2.0,71,0.00,,,0.00,Wunderground v.1.15,2013-05-14 06:20:00,
2013-05-14 02:26:00,47.9,40.4,30.11,SE,141,2.0,4.0,75,0.00,,,0.00,Wunderground v.1.15,2013-05-14 06:26:00,
2013-05-14 02:32:00,47.8,40.3,30.11,SE,143,3.0,3.0,75,0.00,,,0.00,Wunderground v.1.15,2013-05-14 06:32:00,
2013-05-14 02:38:00,48.0,39.8,30.11,SE,146,3.0,4.0,73,0.00,,,0.00,Wunderground v.1.15,2013-05-14 06:38:00,
2013-05-14 02:43:00,48.4,40.1,30.10,SE,144,3.0,4.0,73,0.00,,,0.00,Wunderground v.1.15,2013-05-14 06:43:00,
2013-05-14 02:49:00,48.8,39.8,30.10,SSE,147,4.0,5.0,71,0.00,,,0.00,Wunderground v.1.15,2013-05-14 06:49:00,
2013-05-14 02:55:00,49.2,40.2,30.10,SSE,148,4.0,5.0,71,0.00,,,0.00,Wunderground v.1.15,2013-05-14 06:55:00,
2013-05-14 03:00:00,49.5,39.4,30.10,SSE,147,4.0,4.0,68,0.00,,,0.00,Wunderground v.1.15,2013-05-14 07:00:00,
2013-05-14 03:05:00,49.8,39.7,30.10,SSE,151,4.0,4.0,68,0.00,,,0.00,Wunderground v.1.15,2013-05-14 07:05:00,
2013-05-14 03:10:00,49.8,39.7,30.09,SSE,149,4.0,4.0,68,0.00,,,0.00,Wunderground v.1.15,2013-05-14 07:10:00,
2013-05-14 03:16:00,49.6,39.8,30.09,SE,146,4.0,5.0,69,0.00,,,0.00,Wunderground v.1.15,2013-05-14 07:16:00,
2013-05-14 03:22:00,49.0,39.6,30.09,SE,146,4.0,4.0,70,0.00,,,0.00,Wunderground v.1.15,2013-05-14 07:22:00,
2013-05-14 03:28:00,48.9,39.9,30.09,SE,146,4.0,4.0,71,0.00,,,0.00,Wunderground v.1.15,2013-05-14 07:28:00,
2013-05-14 03:34:00,48.6,39.3,30.09,SE,146,4.0,5.0,70,0.00,,,0.00,Wunderground v.1.15,2013-05-14 07:34:00,
2013-05-14 03:39:00,48.4,39.4,30.09,SE,145,4.0,5.0,71,0.00,,,0.00,Wunderground v.1.15,2013-05-14 07:39:00,
2013-05-14 03:45:00,48.5,39.2,30.09,SSE,152,5.0,5.0,70,0.00,,,0.00,Wunderground v.1.15,2013-05-14 07:45:00,
2013-05-14 03:51:00,48.7,39.0,30.08,SSE,151,5.0,6.0,69,0.00,,,0.00,Wunderground v.1.15,2013-05-14 07:51:00,
2013-05-14 03:56:00,48.8,38.7,30.08,SSE,155,5.0,6.0,68,0.00,,,0.00,Wunderground v.1.15,2013-05-14 07:56:00,
2013-05-14 04:02:00,49.2,38.7,30.08,SSE,149,5.0,6.0,67,0.00,,,0.00,Wunderground v.1.15,2013-05-14 08:02:00,
2013-05-14 04:08:00,49.0,38.9,30.07,SE,145,5.0,6.0,68,0.00,,,0.00,Wunderground v.1.15,2013-05-14 08:08:00,
2013-05-14 04:13:00,48.7,38.6,30.07,SE,145,5.0,6.0,68,0.00,,,0.00,Wunderground v.1.15,2013-05-14 08:13:00,
2013-05-14 04:19:00,48.5,38.8,30.07,SSE,149,5.0,6.0,69,0.00,,,0.00,Wunderground v.1.15,2013-05-14 08:19:00,
2013-05-14 04:25:00,48.3,38.6,30.07,SSE,147,5.0,6.0,69,0.00,,,0.00,Wunderground v.1.15,2013-05-14 08:25:00,
2013-05-14 04:30:00,48.1,38.8,30.07,SSE,148,5.0,5.0,70,0.00,,,0.00,Wunderground v.1.15,2013-05-14 08:30:00,
2013-05-14 04:36:00,48.1,38.4,30.06,SE,144,5.0,6.0,69,0.00,,,0.00,Wunderground v.1.15,2013-05-14 08:36:00,
2013-05-14 04:42:00,48.0,38.7,30.06,SE,138,5.0,5.0,70,0.00,,,0.00,Wunderground v.1.15,2013-05-14 08:42:00,
2013-05-14 04:48:00,47.8,38.5,30.06,SE,140,4.0,5.0,70,0.00,,,0.00,Wunderground v.1.15,2013-05-14 08:48:00,
2013-05-14 04:53:00,47.5,38.6,30.06,SE,141,4.0,5.0,71,0.00,,,0.00,Wunderground v.1.15,2013-05-14 08:53:00,
2013-05-14 04:59:00,47.3,39.1,30.06,SE,137,4.0,6.0,73,0.00,,,0.00,Wunderground v.1.15,2013-05-14 08:59:00,
2013-05-14 05:05:00,47.1,39.2,30.06,SE,143,4.0,5.0,74,0.00,,,0.00,Wunderground v.1.15,2013-05-14 09:05:00,
2013-05-14 05:11:00,46.8,38.9,30.05,SSE,149,4.0,4.0,74,0.00,,,0.00,Wunderground v.1.15,2013-05-14 09:11:00,
2013-05-14 05:17:00,47.0,38.8,30.05,SE,141,4.0,5.0,73,0.00,,,0.00,Wunderground v.1.15,2013-05-14 09:17:00,
2013-05-14 05:23:00,46.6,39.1,30.05,SE,145,3.0,5.0,75,0.00,,,0.00,Wunderground v.1.15,2013-05-14 09:23:00,
2013-05-14 05:29:00,46.2,39.7,30.05,SE,144,3.0,5.0,78,0.00,,,0.00,Wunderground v.1.15,2013-05-14 09:29:00,
2013-05-14 05:34:00,45.9,39.4,30.05,SE,142,3.0,4.0,78,0.00,,,0.00,Wunderground v.1.15,2013-05-14 09:34:00,
2013-05-14 05:40:00,45.8,39.3,30.05,SE,146,3.0,4.0,78,0.00,,,0.00,Wunderground v.1.15,2013-05-14 09:40:00,
2013-05-14 05:46:00,45.6,39.8,30.05,SE,143,4.0,5.0,80,0.00,,,0.00,Wunderground v.1.15,2013-05-14 09:46:00,
2013-05-14 05:52:00,45.6,39.5,30.05,SE,140,4.0,5.0,79,0.00,,,0.00,Wunderground v.1.15,2013-05-14 09:52:00,
2013-05-14 05:57:00,46.0,39.2,30.05,SE,137,4.0,6.0,77,0.00,,,0.00,Wunderground v.1.15,2013-05-14 09:57:00,
2013-05-14 06:03:00,46.4,38.9,30.05,SE,142,5.0,6.0,75,0.00,,,0.00,Wunderground v.1.15,2013-05-14 10:03:00,
2013-05-14 06:09:00,46.8,39.3,30.04,SE,143,5.0,6.0,75,0.00,,,0.00,Wunderground v.1.15,2013-05-14 10:09:00,
2013-05-14 06:15:00,47.4,38.8,30.04,SSE,158,5.0,6.0,72,0.00,,,0.00,Wunderground v.1.15,2013-05-14 10:15:00,
2013-05-14 06:21:00,48.1,38.4,30.05,SE,144,5.0,6.0,69,0.00,,,0.00,Wunderground v.1.15,2013-05-14 10:21:00,
2013-05-14 06:27:00,48.8,37.9,30.04,SSE,152,5.0,6.0,66,0.00,,,0.00,Wunderground v.1.15,2013-05-14 10:27:00,
2013-05-14 06:33:00,49.6,38.3,30.05,South,169,5.0,6.0,65,0.00,,,0.00,Wunderground v.1.15,2013-05-14 10:33:00,
2013-05-14 06:38:00,50.3,37.8,30.04,SSE,147,5.0,7.0,62,0.00,,,0.00,Wunderground v.1.15,2013-05-14 10:38:00,
2013-05-14 06:44:00,50.7,37.3,30.04,SSE,154,6.0,10.0,60,0.00,,,0.00,Wunderground v.1.15,2013-05-14 10:44:00,
2013-05-14 06:50:00,51.2,37.4,30.04,South,174,6.0,6.0,59,0.00,,,0.00,Wunderground v.1.15,2013-05-14 10:50:00,
2013-05-14 06:56:00,51.3,37.4,30.04,SSE,156,6.0,9.0,59,0.00,,,0.00,Wunderground v.1.15,2013-05-14 10:56:00,
2013-05-14 07:02:00,51.4,37.1,30.04,SSE,162,6.0,9.0,58,0.00,,,0.00,Wunderground v.1.15,2013-05-14 11:02:00,
2013-05-14 07:07:00,51.4,37.5,30.04,SSE,148,6.0,10.0,59,0.00,,,0.00,Wunderground v.1.15,2013-05-14 11:07:00,
2013-05-14 07:13:00,51.2,37.8,30.04,SE,145,6.0,9.0,60,0.00,,,0.00,Wunderground v.1.15,2013-05-14 11:13:00,
2013-05-14 07:19:00,50.9,37.9,30.04,SE,143,6.0,9.0,61,0.00,,,0.00,Wunderground v.1.15,2013-05-14 11:19:00,
2013-05-14 07:25:00,50.6,38.5,30.04,SE,143,7.0,7.0,63,0.00,,,0.00,Wunderground v.1.15,2013-05-14 11:25:00,
2013-05-14 07:31:00,50.4,38.3,30.04,SSE,152,7.0,9.0,63,0.00,,,0.00,Wunderground v.1.15,2013-05-14 11:31:00,
2013-05-14 07:37:00,50.6,38.9,30.04,SE,139,7.0,9.0,64,0.00,,,0.00,Wunderground v.1.15,2013-05-14 11:37:00,
2013-05-14 07:42:00,51.0,38.4,30.04,SSE,162,7.0,9.0,62,0.00,,,0.00,Wunderground v.1.15,2013-05-14 11:42:00,
2013-05-14 07:48:00,51.4,38.4,30.04,SSE,147,8.0,9.0,61,0.00,,,0.00,Wunderground v.1.15,2013-05-14 11:48:00,
2013-05-14 07:53:00,51.8,38.8,30.04,SE,137,8.0,10.0,61,0.00,,,0.00,Wunderground v.1.15,2013-05-14 11:53:00,
2013-05-14 07:59:00,52.1,39.5,30.04,SE,135,8.0,11.0,62,0.00,,,0.00,Wunderground v.1.15,2013-05-14 11:59:00,
2013-05-14 08:05:00,52.5,39.4,30.03,SSE,168,8.0,11.0,61,0.00,,,0.00,Wunderground v.1.15,2013-05-14 12:05:00,
2013-05-14 08:10:00,52.8,39.3,30.03,SSE,157,8.0,8.0,60,0.00,,,0.00,Wunderground v.1.15,2013-05-14 12:10:00,
2013-05-14 08:16:00,53.3,39.3,30.03,SSE,163,8.0,8.0,59,0.00,,,0.00,Wunderground v.1.15,2013-05-14 12:16:00,
2013-05-14 08:22:00,53.9,39.9,30.03,SSE,147,8.0,9.0,59,0.00,,,0.00,Wunderground v.1.15,2013-05-14 12:22:00,
2013-05-14 08:28:00,54.3,40.3,30.03,SSE,149,8.0,11.0,59,0.00,,,0.00,Wunderground v.1.15,2013-05-14 12:28:00,
2013-05-14 08:34:00,54.9,39.9,30.03,SSE,148,8.0,11.0,57,0.00,,,0.00,Wunderground v.1.15,2013-05-14 12:34:00,
2013-05-14 08:39:00,55.3,39.9,30.02,SSE,154,8.0,11.0,56,0.00,,,0.00,Wunderground v.1.15,2013-05-14 12:39:00,
2013-05-14 08:45:00,55.9,40.9,30.02,SSE,149,9.0,9.0,57,0.00,,,0.00,Wunderground v.1.15,2013-05-14 12:45:00,
2013-05-14 08:51:00,56.4,40.4,30.02,SE,142,7.0,9.0,55,0.00,,,0.00,Wunderground v.1.15,2013-05-14 12:51:00,
2013-05-14 08:57:00,56.9,40.4,30.01,SE,128,8.0,11.0,54,0.00,,,0.00,Wunderground v.1.15,2013-05-14 12:57:00,
2013-05-14 09:03:00,57.5,41.9,30.01,SSE,156,8.0,9.0,56,0.00,,,0.00,Wunderground v.1.15,2013-05-14 13:03:00,
2013-05-14 09:08:00,58.0,41.4,30.01,South,170,7.0,10.0,54,0.00,,,0.00,Wunderground v.1.15,2013-05-14 13:08:00,
2013-05-14 09:14:00,58.6,41.5,30.01,SSE,158,7.0,8.0,53,0.00,,,0.00,Wunderground v.1.15,2013-05-14 13:14:00,
2013-05-14 09:20:00,59.1,42.0,30.00,SSE,154,7.0,7.0,53,0.00,,,0.00,Wunderground v.1.15,2013-05-14 13:20:00,
2013-05-14 09:26:00,59.5,42.3,30.00,SSE,163,9.0,16.0,53,0.00,,,0.00,Wunderground v.1.15,2013-05-14 13:26:00,
2013-05-14 09:32:00,60.2,43.0,29.99,South,173,8.0,9.0,53,0.00,,,0.00,Wunderground v.1.15,2013-05-14 13:32:00,
2013-05-14 09:38:00,60.6,42.4,29.99,SSE,164,7.0,11.0,51,0.00,,,0.00,Wunderground v.1.15,2013-05-14 13:38:00,
2013-05-14 09:43:00,61.0,43.7,29.99,SSE,168,8.0,10.0,53,0.00,,,0.00,Wunderground v.1.15,2013-05-14 13:43:00,
2013-05-14 09:49:00,61.8,44.5,29.99,South,170,7.0,11.0,53,0.00,,,0.00,Wunderground v.1.15,2013-05-14 13:49:00,
2013-05-14 09:55:00,62.4,45.0,29.99,SSE,156,8.0,9.0,53,0.00,,,0.00,Wunderground v.1.15,2013-05-14 13:55:00,
2013-05-14 10:01:00,62.8,44.4,29.99,SSW,192,9.0,9.0,51,0.00,,,0.00,Wunderground v.1.15,2013-05-14 14:01:00,
2013-05-14 10:07:00,63.5,46.1,29.98,SSE,156,8.0,10.0,53,0.00,,,0.00,Wunderground v.1.15,2013-05-14 14:07:00,
2013-05-14 10:12:00,64.1,47.1,29.98,SSE,158,7.0,11.0,54,0.00,,,0.00,Wunderground v.1.15,2013-05-14 14:12:00,
2013-05-14 10:18:00,64.6,46.6,29.98,South,170,8.0,12.0,52,0.00,,,0.00,Wunderground v.1.15,2013-05-14 14:18:00,
2013-05-14 10:24:00,65.0,45.9,29.98,SSW,192,10.0,13.0,50,0.00,,,0.00,Wunderground v.1.15,2013-05-14 14:24:00,
2013-05-14 10:30:00,65.0,46.4,29.97,South,187,10.0,12.0,51,0.00,,,0.00,Wunderground v.1.15,2013-05-14 14:30:00,
2013-05-14 10:36:00,65.3,47.2,29.97,South,182,11.0,12.0,52,0.00,,,0.00,Wunderground v.1.15,2013-05-14 14:36:00,
2013-05-14 10:42:00,65.7,48.6,29.97,SSE,158,10.0,11.0,54,0.00,,,0.00,Wunderground v.1.15,2013-05-14 14:42:00,
2013-05-14 10:47:00,66.2,47.5,29.96,SSE,151,9.0,12.0,51,0.00,,,0.00,Wunderground v.1.15,2013-05-14 14:47:00,
2013-05-14 10:53:00,66.4,48.2,29.96,SSE,168,10.0,11.0,52,0.00,,,0.00,Wunderground v.1.15,2013-05-14 14:53:00,
2013-05-14 10:59:00,66.4,48.2,29.95,South,176,10.0,13.0,52,0.00,,,0.00,Wunderground v.1.15,2013-05-14 14:59:00,
2013-05-14 11:05:00,66.8,48.6,29.96,SSE,168,10.0,15.0,52,0.00,,,0.00,Wunderground v.1.15,2013-05-14 15:05:00,
2013-05-14 11:11:00,67.1,48.9,29.95,SSE,165,9.0,9.0,52,0.00,,,0.00,Wunderground v.1.15,2013-05-14 15:11:00,
2013-05-14 11:17:00,67.8,49.0,29.95,South,170,8.0,13.0,51,0.00,,,0.00,Wunderground v.1.15,2013-05-14 15:17:00,
2013-05-14 11:23:00,68.3,50.0,29.95,SW,216,8.0,11.0,52,0.00,,,0.00,Wunderground v.1.15,2013-05-14 15:23:00,
2013-05-14 11:29:00,69.0,50.6,29.94,SSE,152,7.0,11.0,52,0.00,,,0.00,Wunderground v.1.15,2013-05-14 15:29:00,
2013-05-14 11:34:00,69.2,50.3,29.94,SSE,162,8.0,15.0,51,0.00,,,0.00,Wunderground v.1.15,2013-05-14 15:34:00,
2013-05-14 11:40:00,69.2,50.8,29.94,SE,143,9.0,9.0,52,0.00,,,0.00,Wunderground v.1.15,2013-05-14 15:40:00,
2013-05-14 11:46:00,69.9,51.5,29.94,SSW,209,8.0,12.0,52,0.00,,,0.00,Wunderground v.1.15,2013-05-14 15:46:00,
2013-05-14 11:52:00,70.4,51.4,29.93,SSE,159,8.0,9.0,51,0.00,,,0.00,Wunderground v.1.15,2013-05-14 15:52:00,
2013-05-14 11:57:00,70.8,51.2,29.93,SSE,160,8.0,10.0,50,0.00,,,0.00,Wunderground v.1.15,2013-05-14 15:57:00,
2013-05-14 12:03:00,70.8,51.8,29.93,SSW,212,8.0,12.0,51,0.00,,,0.00,Wunderground v.1.15,2013-05-14 16:03:00,
2013-05-14 12:08:00,71.4,52.9,29.93,SSE,168,8.0,12.0,52,0.00,,,0.00,Wunderground v.1.15,2013-05-14 16:08:00,
2013-05-14 12:14:00,71.9,52.2,29.93,South,174,7.0,10.0,50,0.00,,,0.00,Wunderground v.1.15,2013-05-14 16:14:00,
2013-05-14 12:19:00,72.4,53.2,29.93,SSW,204,8.0,15.0,51,0.00,,,0.00,Wunderground v.1.15,2013-05-14 16:19:00,
2013-05-14 12:25:00,72.8,53.1,29.93,SSE,166,8.0,11.0,50,0.00,,,0.00,Wunderground v.1.15,2013-05-14 16:25:00,
2013-05-14 12:31:00,73.3,52.4,29.93,SSE,159,7.0,8.0,48,0.00,,,0.00,Wunderground v.1.15,2013-05-14 16:31:00,
2013-05-14 12:37:00,73.5,54.3,29.92,SSE,155,7.0,12.0,51,0.00,,,0.00,Wunderground v.1.15,2013-05-14 16:37:00,
2013-05-14 12:43:00,73.9,53.0,29.92,SW,220,8.0,16.0,48,0.00,,,0.00,Wunderground v.1.15,2013-05-14 16:43:00,
2013-05-14 12:49:00,74.2,53.8,29.91,SSE,154,9.0,16.0,49,0.00,,,0.00,Wunderground v.1.15,2013-05-14 16:49:00,
2013-05-14 12:55:00,74.9,54.4,29.91,SSE,166,8.0,11.0,49,0.00,,,0.00,Wunderground v.1.15,2013-05-14 16:55:00,
2013-05-14 13:01:00,75.7,55.7,29.91,South,181,8.0,8.0,50,0.00,,,0.00,Wunderground v.1.15,2013-05-14 17:01:00,
2013-05-14 13:06:00,76.1,53.8,29.90,SSW,211,8.0,10.0,46,0.00,,,0.00,Wunderground v.1.15,2013-05-14 17:06:00,
2013-05-14 13:12:00,76.5,55.9,29.90,SSW,200,9.0,16.0,49,0.00,,,0.00,Wunderground v.1.15,2013-05-14 17:12:00,
2013-05-14 13:18:00,76.5,55.3,29.89,SSW,208,9.0,16.0,48,0.00,,,0.00,Wunderground v.1.15,2013-05-14 17:18:00,
2013-05-14 13:24:00,77.0,56.4,29.89,SW,214,11.0,18.0,49,0.00,,,0.00,Wunderground v.1.15,2013-05-14 17:24:00,
2013-05-14 13:30:00,77.4,55.0,29.89,SSW,211,12.0,17.0,46,0.00,,,0.00,Wunderground v.1.15,2013-05-14 17:30:00,
2013-05-14 13:36:00,77.4,55.6,29.89,SW,218,13.0,17.0,47,0.00,,,0.00,Wunderground v.1.15,2013-05-14 17:36:00,
2013-05-14 13:41:00,77.5,56.3,29.88,South,191,14.0,14.0,48,0.00,,,0.00,Wunderground v.1.15,2013-05-14 17:41:00,
2013-05-14 13:47:00,78.1,56.2,29.88,SSW,195,11.0,14.0,47,0.00,,,0.00,Wunderground v.1.15,2013-05-14 17:47:00,
2013-05-14 13:53:00,78.4,57.1,29.88,SSW,193,10.0,11.0,48,0.00,,,0.00,Wunderground v.1.15,2013-05-14 17:53:00,
2013-05-14 13:59:00,78.2,56.3,29.88,SW,224,11.0,21.0,47,0.00,,,0.00,Wunderground v.1.15,2013-05-14 17:59:00,
2013-05-14 14:05:00,77.9,56.0,29.87,SSW,197,14.0,29.0,47,0.00,,,0.00,Wunderground v.1.15,2013-05-14 18:05:00,
2013-05-14 14:10:00,78.1,56.8,29.87,SW,231,14.0,14.0,48,0.00,,,0.00,Wunderground v.1.15,2013-05-14 18:10:00,
2013-05-14 14:16:00,78.7,57.4,29.87,SW,229,13.0,17.0,48,0.00,,,0.00,Wunderground v.1.15,2013-05-14 18:16:00,
2013-05-14 14:22:00,78.8,56.9,29.86,SW,217,13.0,14.0,47,0.00,,,0.00,Wunderground v.1.15,2013-05-14 18:22:00,
2013-05-14 14:28:00,79.3,59.0,29.86,WSW,249,10.0,19.0,50,0.00,,,0.00,Wunderground v.1.15,2013-05-14 18:28:00,
2013-05-14 14:34:00,79.2,57.8,29.85,WSW,239,11.0,17.0,48,0.00,,,0.00,Wunderground v.1.15,2013-05-14 18:34:00,
2013-05-14 14:39:00,79.4,58.0,29.85,WSW,258,13.0,17.0,48,0.00,,,0.00,Wunderground v.1.15,2013-05-14 18:39:00,
2013-05-14 14:45:00,79.8,57.8,29.85,South,176,12.0,21.0,47,0.00,,,0.00,Wunderground v.1.15,2013-05-14 18:45:00,
2013-05-14 14:51:00,80.1,57.5,29.84,South,191,11.0,13.0,46,0.00,,,0.00,Wunderground v.1.15,2013-05-14 18:51:00,
2013-05-14 14:57:00,80.1,58.0,29.84,SSW,213,10.0,20.0,47,0.00,,,0.00,Wunderground v.1.15,2013-05-14 18:57:00,
2013-05-14 15:03:00,80.2,58.1,29.84,SSW,195,11.0,17.0,47,0.00,,,0.00,Wunderground v.1.15,2013-05-14 19:03:00,
2013-05-14 15:09:00,80.4,57.1,29.83,SSW,211,13.0,23.0,45,0.00,,,0.00,Wunderground v.1.15,2013-05-14 19:09:00,
2013-05-14 15:15:00,80.6,58.5,29.83,SSW,206,13.0,16.0,47,0.00,,,0.00,Wunderground v.1.15,2013-05-14 19:15:00,
2013-05-14 15:21:00,80.9,58.8,29.83,SW,217,12.0,12.0,47,0.00,,,0.00,Wunderground v.1.15,2013-05-14 19:21:00,
2013-05-14 15:27:00,81.1,59.0,29.83,SSE,163,11.0,16.0,47,0.00,,,0.00,Wunderground v.1.15,2013-05-14 19:27:00,
2013-05-14 15:33:00,81.4,58.6,29.83,SSW,209,10.0,18.0,46,0.00,,,0.00,Wunderground v.1.15,2013-05-14 19:33:00,
2013-05-14 15:38:00,81.2,57.2,29.83,South,171,13.0,22.0,44,0.00,,,0.00,Wunderground v.1.15,2013-05-14 19:38:00,
2013-05-14 15:43:00,81.4,57.4,29.83,SSW,204,14.0,22.0,44,0.00,,,0.00,Wunderground v.1.15,2013-05-14 19:43:00,
2013-05-14 15:49:00,81.6,59.4,29.83,SW,216,12.0,22.0,47,0.00,,,0.00,Wunderground v.1.15,2013-05-14 19:49:00,
2013-05-14 15:55:00,81.6,59.4,29.83,South,180,10.0,18.0,47,0.00,,,0.00,Wunderground v.1.15,2013-05-14 19:55:00,
2013-05-14 16:01:00,81.4,59.2,29.83,SW,217,12.0,12.0,47,0.00,,,0.00,Wunderground v.1.15,2013-05-14 20:01:00,
2013-05-14 16:07:00,81.2,58.5,29.83,SSW,193,13.0,20.0,46,0.00,,,0.00,Wunderground v.1.15,2013-05-14 20:07:00,
2013-05-14 16:12:00,81.0,58.9,29.83,SW,229,14.0,17.0,47,0.00,,,0.00,Wunderground v.1.15,2013-05-14 20:12:00,
2013-05-14 16:18:00,81.2,59.1,29.83,SSE,164,13.0,17.0,47,0.00,,,0.00,Wunderground v.1.15,2013-05-14 20:18:00,
2013-05-14 16:24:00,81.2,60.2,29.83,SW,233,10.0,15.0,49,0.00,,,0.00,Wunderground v.1.15,2013-05-14 20:24:00,
2013-05-14 16:30:00,81.2,59.6,29.83,SW,232,12.0,16.0,48,0.00,,,0.00,Wunderground v.1.15,2013-05-14 20:30:00,
2013-05-14 16:36:00,81.3,59.1,29.83,SW,216,14.0,16.0,47,0.00,,,0.00,Wunderground v.1.15,2013-05-14 20:36:00,
2013-05-14 16:41:00,81.3,59.1,29.83,SSW,199,12.0,14.0,47,0.00,,,0.00,Wunderground v.1.15,2013-05-14 20:41:00,
2013-05-14 16:47:00,81.7,60.1,29.83,SW,229,11.0,14.0,48,0.00,,,0.00,Wunderground v.1.15,2013-05-14 20:47:00,
2013-05-14 16:53:00,81.5,59.3,29.83,SW,231,13.0,16.0,47,0.00,,,0.00,Wunderground v.1.15,2013-05-14 20:53:00,
2013-05-14 16:59:00,81.6,59.4,29.83,SW,227,13.0,17.0,47,0.00,,,0.00,Wunderground v.1.15,2013-05-14 20:59:00,
2013-05-14 17:05:00,81.5,59.3,29.83,SW,216,13.0,22.0,47,0.00,,,0.00,Wunderground v.1.15,2013-05-14 21:05:00,
2013-05-14 17:10:00,81.7,59.5,29.83,SW,222,12.0,13.0,47,0.00,,,0.00,Wunderground v.1.15,2013-05-14 21:10:00,
2013-05-14 17:16:00,81.4,58.6,29.83,SW,215,13.0,16.0,46,0.00,,,0.00,Wunderground v.1.15,2013-05-14 21:16:00,
2013-05-14 17:22:00,81.5,60.5,29.83,SW,228,14.0,14.0,49,0.00,,,0.00,Wunderground v.1.15,2013-05-14 21:22:00,
2013-05-14 17:28:00,81.5,59.9,29.83,SSW,208,13.0,18.0,48,0.00,,,0.00,Wunderground v.1.15,2013-05-14 21:28:00,
2013-05-14 17:34:00,81.4,59.8,29.83,SW,232,14.0,22.0,48,0.00,,,0.00,Wunderground v.1.15,2013-05-14 21:34:00,
2013-05-14 17:40:00,81.6,60.6,29.83,SSW,195,12.0,12.0,49,0.00,,,0.00,Wunderground v.1.15,2013-05-14 21:40:00,
2013-05-14 17:46:00,81.8,60.2,29.83,SSW,197,11.0,14.0,48,0.00,,,0.00,Wunderground v.1.15,2013-05-14 21:46:00,
2013-05-14 17:51:00,81.9,61.4,29.83,SW,216,11.0,11.0,50,0.00,,,0.00,Wunderground v.1.15,2013-05-14 21:51:00,
2013-05-14 17:57:00,82.1,61.6,29.83,SW,235,9.0,11.0,50,0.00,,,0.00,Wunderground v.1.15,2013-05-14 21:57:00,
2013-05-14 18:03:00,81.9,61.4,29.83,NW,314,10.0,11.0,50,0.00,,,0.00,Wunderground v.1.15,2013-05-14 22:03:00,
2013-05-14 18:08:00,81.8,60.8,29.83,SW,222,11.0,13.0,49,0.00,,,0.00,Wunderground v.1.15,2013-05-14 22:08:00,
2013-05-14 18:14:00,81.6,59.4,29.83,SSW,205,12.0,16.0,47,0.00,,,0.00,Wunderground v.1.15,2013-05-14 22:14:00,
2013-05-14 18:19:00,81.3,59.7,29.83,SW,227,14.0,17.0,48,0.00,,,0.00,Wunderground v.1.15,2013-05-14 22:19:00,
2013-05-14 18:25:00,81.3,60.3,29.83,West,277,14.0,17.0,49,0.00,,,0.00,Wunderground v.1.15,2013-05-14 22:25:00,
2013-05-14 18:31:00,81.3,59.7,29.83,SW,220,12.0,13.0,48,0.00,,,0.00,Wunderground v.1.15,2013-05-14 22:31:00,
2013-05-14 18:37:00,81.2,60.2,29.83,South,191,12.0,17.0,49,0.00,,,0.00,Wunderground v.1.15,2013-05-14 22:37:00,
2013-05-14 18:43:00,81.1,60.1,29.83,SW,216,13.0,18.0,49,0.00,,,0.00,Wunderground v.1.15,2013-05-14 22:43:00,
2013-05-14 18:49:00,81.2,60.8,29.82,SSW,203,11.0,18.0,50,0.00,,,0.00,Wunderground v.1.15,2013-05-14 22:49:00,
2013-05-14 18:55:00,81.2,60.2,29.82,SSW,212,11.0,17.0,49,0.00,,,0.00,Wunderground v.1.15,2013-05-14 22:55:00,
2013-05-14 19:00:00,81.2,60.8,29.82,SW,233,12.0,13.0,50,0.00,,,0.00,Wunderground v.1.15,2013-05-14 23:00:00,
2013-05-14 19:06:00,81.2,60.2,29.82,SSW,195,11.0,15.0,49,0.00,,,0.00,Wunderground v.1.15,2013-05-14 23:06:00,
2013-05-14 19:12:00,81.2,60.8,29.82,SW,223,10.0,12.0,50,0.00,,,0.00,Wunderground v.1.15,2013-05-14 23:12:00,
2013-05-14 19:18:00,81.2,60.2,29.82,SW,214,10.0,14.0,49,0.00,,,0.00,Wunderground v.1.15,2013-05-14 23:18:00,
2013-05-14 19:24:00,81.3,60.3,29.82,WSW,241,10.0,14.0,49,0.00,,,0.00,Wunderground v.1.15,2013-05-14 23:24:00,
2013-05-14 19:30:00,81.3,60.3,29.82,South,176,9.0,9.0,49,0.00,,,0.00,Wunderground v.1.15,2013-05-14 23:30:00,
2013-05-14 19:36:00,81.2,59.1,29.82,SW,214,10.0,13.0,47,0.00,,,0.00,Wunderground v.1.15,2013-05-14 23:36:00,
2013-05-14 19:41:00,81.0,59.5,29.82,SW,216,10.0,11.0,48,0.00,,,0.00,Wunderground v.1.15,2013-05-14 23:41:00,
2013-05-14 19:47:00,80.9,59.9,29.82,SW,231,10.0,16.0,49,0.00,,,0.00,Wunderground v.1.15,2013-05-14 23:47:00,
2013-05-14 19:53:00,80.8,59.9,29.82,WSW,244,8.0,12.0,49,0.00,,,0.00,Wunderground v.1.15,2013-05-14 23:53:00,
2013-05-14 19:59:00,80.8,59.3,29.82,SW,231,10.0,15.0,48,0.00,,,0.00,Wunderground v.1.15,2013-05-14 23:59:00,
2013-05-14 20:04:00,80.6,59.7,29.82,SW,228,11.0,12.0,49,0.00,,,0.00,Wunderground v.1.15,2013-05-15 00:04:00,
2013-05-14 20:10:00,80.4,59.5,29.82,SSW,207,9.0,9.0,49,0.00,,,0.00,Wunderground v.1.15,2013-05-15 00:10:00,
2013-05-14 20:16:00,80.0,59.7,29.82,SW,218,8.0,10.0,50,0.00,,,0.00,Wunderground v.1.15,2013-05-15 00:16:00,
2013-05-14 20:22:00,79.9,59.6,29.82,SSW,212,7.0,8.0,50,0.00,,,0.00,Wunderground v.1.15,2013-05-15 00:22:00,
2013-05-14 20:28:00,79.7,59.4,29.82,SW,232,6.0,8.0,50,0.00,,,0.00,Wunderground v.1.15,2013-05-15 00:28:00,
2013-05-14 20:34:00,79.5,59.2,29.82,SSW,195,7.0,8.0,50,0.00,,,0.00,Wunderground v.1.15,2013-05-15 00:34:00,
2013-05-14 20:39:00,79.3,59.6,29.82,SSW,209,7.0,8.0,51,0.00,,,0.00,Wunderground v.1.15,2013-05-15 00:39:00,
2013-05-14 20:45:00,79.0,59.3,29.82,SSW,208,6.0,8.0,51,0.00,,,0.00,Wunderground v.1.15,2013-05-15 00:45:00,
2013-05-14 20:51:00,78.8,59.1,29.82,SSW,211,5.0,6.0,51,0.00,,,0.00,Wunderground v.1.15,2013-05-15 00:51:00,
2013-05-14 20:57:00,78.6,59.5,29.82,South,180,6.0,7.0,52,0.00,,,0.00,Wunderground v.1.15,2013-05-15 00:57:00,
2013-05-14 21:03:00,78.3,59.2,29.82,SSW,197,5.0,7.0,52,0.00,,,0.00,Wunderground v.1.15,2013-05-15 01:03:00,
2013-05-14 21:09:00,77.8,59.8,29.82,South,181,5.0,7.0,54,0.00,,,0.00,Wunderground v.1.15,2013-05-15 01:09:00,
2013-05-14 21:15:00,77.2,59.3,29.82,South,184,4.0,5.0,54,0.00,,,0.00,Wunderground v.1.15,2013-05-15 01:15:00,
2013-05-14 21:21:00,77.0,59.6,29.82,SSE,168,4.0,7.0,55,0.00,,,0.00,Wunderground v.1.15,2013-05-15 01:21:00,
2013-05-14 21:27:00,76.7,59.3,29.82,SSE,166,4.0,7.0,55,0.00,,,0.00,Wunderground v.1.15,2013-05-15 01:27:00,
2013-05-14 21:33:00,76.4,59.5,29.82,SSW,212,4.0,8.0,56,0.00,,,0.00,Wunderground v.1.15,2013-05-15 01:33:00,
2013-05-14 21:38:00,76.0,59.2,29.83,SSE,158,3.0,8.0,56,0.00,,,0.00,Wunderground v.1.15,2013-05-15 01:38:00,
2013-05-14 21:44:00,75.7,59.4,29.83,SSE,153,3.0,4.0,57,0.00,,,0.00,Wunderground v.1.15,2013-05-15 01:44:00,
2013-05-14 21:50:00,75.1,59.3,29.83,SSE,156,3.0,3.0,58,0.00,,,0.00,Wunderground v.1.15,2013-05-15 01:50:00,
2013-05-14 21:56:00,74.5,59.2,29.83,SSE,156,2.0,3.0,59,0.00,,,0.00,Wunderground v.1.15,2013-05-15 01:56:00,
2013-05-14 22:02:00,74.4,59.1,29.83,SSE,156,2.0,3.0,59,0.00,,,0.00,Wunderground v.1.15,2013-05-15 02:02:00,
2013-05-14 22:08:00,74.2,59.4,29.84,SSE,166,3.0,4.0,60,0.00,,,0.00,Wunderground v.1.15,2013-05-15 02:08:00,
2013-05-14 22:13:00,74.2,59.4,29.84,South,172,3.0,4.0,60,0.00,,,0.00,Wunderground v.1.15,2013-05-15 02:13:00,
2013-05-14 22:19:00,74.1,59.3,29.84,South,180,3.0,6.0,60,0.00,,,0.00,Wunderground v.1.15,2013-05-15 02:19:00,
2013-05-14 22:25:00,73.9,59.6,29.84,South,176,3.0,4.0,61,0.00,,,0.00,Wunderground v.1.15,2013-05-15 02:25:00,
2013-05-14 22:30:00,73.7,59.4,29.84,SSE,162,3.0,3.0,61,0.00,,,0.00,Wunderground v.1.15,2013-05-15 02:30:00,
2013-05-14 22:36:00,73.4,59.6,29.84,SE,145,3.0,4.0,62,0.00,,,0.00,Wunderground v.1.15,2013-05-15 02:36:00,
2013-05-14 22:41:00,73.1,59.8,29.84,SE,138,3.0,3.0,63,0.00,,,0.00,Wunderground v.1.15,2013-05-15 02:41:00,
2013-05-14 22:47:00,72.7,59.8,29.85,SE,138,2.0,3.0,64,0.00,,,0.00,Wunderground v.1.15,2013-05-15 02:47:00,
2013-05-14 22:53:00,72.2,59.8,29.85,SE,138,1.0,2.0,65,0.00,,,0.00,Wunderground v.1.15,2013-05-15 02:53:00,
2013-05-14 22:59:00,71.2,59.7,29.85,SE,137,0.0,2.0,67,0.00,,,0.00,Wunderground v.1.15,2013-05-15 02:59:00,
2013-05-14 23:04:00,70.2,59.6,29.85,SE,137,1.0,2.0,69,0.00,,,0.00,Wunderground v.1.15,2013-05-15 03:04:00,
2013-05-14 23:09:00,69.2,59.4,29.85,SSE,149,1.0,3.0,71,0.00,,,0.00,Wunderground v.1.15,2013-05-15 03:09:00,
2013-05-14 23:15:00,69.0,59.6,29.85,SE,143,3.0,5.0,72,0.00,,,0.00,Wunderground v.1.15,2013-05-15 03:15:00,
2013-05-14 23:21:00,69.4,59.6,29.84,SE,146,4.0,4.0,71,0.00,,,0.00,Wunderground v.1.15,2013-05-15 03:21:00,
2013-05-14 23:27:00,69.6,59.8,29.84,SSE,150,4.0,4.0,71,0.00,,,0.00,Wunderground v.1.15,2013-05-15 03:27:00,
2013-05-14 23:33:00,70.1,59.9,29.84,SE,145,4.0,5.0,70,0.00,,,0.00,Wunderground v.1.15,2013-05-15 03:33:00,
2013-05-14 23:39:00,70.3,59.6,29.84,SSE,151,4.0,5.0,69,0.00,,,0.00,Wunderground v.1.15,2013-05-15 03:39:00,
2013-05-14 23:45:00,70.3,59.6,29.84,SSE,150,4.0,4.0,69,0.00,,,0.00,Wunderground v.1.15,2013-05-15 03:45:00,
2013-05-14 23:51:00,70.3,59.6,29.84,SSE,148,3.0,3.0,69,0.00,,,0.00,Wunderground v.1.15,2013-05-15 03:51:00,
2013-05-14 23:57:00,70.3,59.6,29.84,SSE,156,3.0,4.0,69,0.00,,,0.00,Wunderground v.1.15,2013-05-15 03:57:00,